Time;durP1;ratioP1;P1;durP2;ratioP2;P2;SDS_P1;SDS_P2;PMS_P1;PMS_P2;Temp;Humidity;BMP_temperature;BMP_pressure;BME280_temperature;BME280_humidity;BME280_pressure;Samples;Min_cycle;Max_cycle;Signal;HPM_P1;HPM_P2
2021/09/24 00:02:15;;;;;;;9.30;5.55;;;16.20;99.90;;;14.91;95.91;101352.28;2567995;30;137763;-41
2021/09/24 00:04:46;;;;;;;12.45;6.30;;;16.20;99.90;;;14.90;96.11;101353.34;2568044;30;138841;-41
2021/09/24 00:07:14;;;;;;;11.88;5.90;;;16.20;99.90;;;14.88;95.97;101352.72;2567891;30;137477;-41
2021/09/24 00:09:41;;;;;;;9.20;6.03;;;16.20;99.90;;;14.81;96.33;101342.63;2568511;30;138419;-40
2021/09/24 00:12:09;;;;;;;10.77;6.25;;;16.10;99.90;;;14.84;96.54;101348.72;2569143;30;137429;-40
2021/09/24 00:14:40;;;;;;;11.57;7.30;;;16.10;99.90;;;14.83;96.42;101345.16;2568452;30;137317;-39
2021/09/24 00:17:07;;;;;;;;;;;16.10;99.90;;;14.80;96.43;101346.44;2568231;30;137372;-39
2021/09/24 00:19:35;;;;;;;11.63;6.50;;;16.10;99.90;;;14.76;96.80;101342.47;2568313;30;139586;-40
2021/09/24 00:22:03;;;;;;;11.82;7.53;;;16.10;99.90;;;14.76;96.81;101347.97;2568979;30;137063;-40
2021/09/24 00:24:33;;;;;;;11.15;7.15;;;16.00;99.90;;;14.80;96.83;101340.13;2568287;30;140674;-40
2021/09/24 00:27:01;;;;;;;15.38;7.35;;;16.00;99.90;;;14.84;96.72;101332.25;2567432;30;137517;-42
2021/09/24 00:29:28;;;;;;;;;;;16.10;99.90;;;14.85;96.94;101339.41;2566265;30;138296;-40
2021/09/24 00:31:56;;;;;;;13.68;8.13;;;16.10;99.90;;;14.82;97.14;101329.75;2569267;30;137270;-40
2021/09/24 00:34:26;;;;;;;13.57;7.72;;;16.10;99.90;;;14.77;97.37;101333.19;2567891;30;137694;-39
2021/09/24 00:36:53;;;;;;;11.95;7.43;;;16.00;99.90;;;14.74;97.83;101328.16;2566395;30;137813;-40
2021/09/24 00:39:21;;;;;;;11.27;7.50;;;16.00;99.90;;;14.73;98.11;101331.13;2567810;30;138868;-40
2021/09/24 00:41:51;;;;;;;13.30;7.50;;;16.00;99.90;;;14.68;98.80;101329.03;2565540;30;137405;-40
2021/09/24 00:44:19;;;;;;;12.88;7.93;;;16.00;99.90;;;14.67;98.66;101330.09;2565780;30;138497;-38
2021/09/24 00:46:46;;;;;;;12.93;7.85;;;15.90;99.90;;;14.65;99.03;101332.22;2568395;30;136774;-40
2021/09/24 00:49:19;;;;;;;14.25;8.48;;;15.90;99.90;;;14.66;99.02;101325.69;2568032;30;138395;-40
2021/09/24 00:51:50;;;;;;;13.70;8.35;;;15.90;99.90;;;14.63;98.99;101326.13;2567557;30;137335;-40
2021/09/24 00:54:18;;;;;;;12.50;7.88;;;15.90;99.90;;;14.62;99.10;101328.03;2567949;30;138300;-39
2021/09/24 00:56:45;;;;;;;;;;;15.90;99.90;;;14.68;99.01;101310.63;2567113;30;138012;-39
2021/09/24 00:59:13;;;;;;;11.60;8.30;;;15.90;99.90;;;14.65;98.96;101318.50;2567044;30;138986;-40
2021/09/24 01:01:41;;;;;;;;;;;15.90;99.90;;;14.59;99.05;101319.41;2568302;30;137504;-40
2021/09/24 01:04:09;;;;;;;13.73;8.98;;;15.90;99.90;;;14.57;99.11;101313.28;2567441;30;138190;-40
2021/09/24 01:06:39;;;;;;;16.17;9.20;;;15.80;99.90;;;14.55;99.59;101313.53;2567264;30;136745;-42
2021/09/24 01:09:07;;;;;;;14.95;8.27;;;15.80;99.90;;;14.52;99.47;101314.81;2567507;30;138676;-40
2021/09/24 01:11:38;;;;;;;12.15;8.07;;;15.80;99.90;;;14.50;99.57;101311.47;2567259;30;136996;-40
2021/09/24 01:14:06;;;;;;;18.48;8.35;;;15.80;99.90;;;14.48;99.86;101313.59;2566607;30;138371;-40
2021/09/24 01:16:34;;;;;;;14.95;9.00;;;15.80;99.90;;;14.47;99.80;101302.88;2568414;30;138349;-40
2021/09/24 01:19:03;;;;;;;11.55;8.10;;;15.80;99.90;;;14.45;99.85;101305.81;2568527;30;137463;-40
2021/09/24 01:21:32;;;;;;;15.98;9.43;;;15.70;99.90;;;14.46;100.00;101302.00;2567703;30;136647;-40
2021/09/24 01:24:00;;;;;;;13.95;8.63;;;15.70;99.90;;;14.47;99.74;101308.34;2578912;30;138769;-41
2021/09/24 01:26:29;;;;;;;16.67;8.85;;;15.80;99.90;;;14.51;99.48;101299.41;2566375;30;136848;-41
2021/09/24 01:28:56;;;;;;;18.35;9.00;;;15.80;99.90;;;14.50;99.02;101300.47;2568358;30;138451;-41
2021/09/24 01:31:24;;;;;;;17.48;8.73;;;15.80;99.90;;;14.57;98.27;101305.06;2567980;30;137704;-41
2021/09/24 01:33:52;;;;;;;14.27;9.05;;;15.80;99.90;;;14.52;98.58;101298.34;2569313;30;139508;-41
2021/09/24 01:36:19;;;;;;;;;;;15.80;99.90;;;14.59;98.53;101300.19;2566841;30;137785;-40
2021/09/24 01:38:47;;;;;;;17.02;8.98;;;15.80;99.90;;;14.59;98.12;101303.78;2569442;30;138868;-41
2021/09/24 01:41:15;;;;;;;17.08;8.88;;;15.80;99.90;;;14.62;98.00;101297.81;2568272;30;137829;-41
2021/09/24 01:43:42;;;;;;;13.38;8.75;;;15.80;99.90;;;14.64;97.32;101300.34;2568281;30;138333;-41
2021/09/24 01:46:10;;;;;;;16.65;9.50;;;15.90;99.90;;;14.62;97.59;101291.50;2567875;30;138413;-41
2021/09/24 01:48:43;;;;;;;14.20;8.80;;;15.80;99.90;;;14.58;97.84;101291.09;2569491;30;137228;-41
2021/09/24 01:51:11;;;;;;;15.07;8.82;;;15.80;99.90;;;14.53;98.19;101294.53;2568251;30;137582;-41
2021/09/24 01:53:39;;;;;;;15.13;9.07;;;15.80;99.90;;;14.48;98.74;101297.13;2565028;30;138199;-42
2021/09/24 01:56:06;;;;;;;;;;;15.80;99.90;;;14.49;99.06;101290.56;2568918;30;137710;-41
2021/09/24 01:58:34;;;;;;;16.35;8.20;;;15.80;99.90;;;14.50;99.14;101286.75;2569450;30;138085;-41
2021/09/24 02:01:01;;;;;;;12.20;8.30;;;15.70;99.90;;;14.62;98.24;101283.28;2569673;30;138575;-41
2021/09/24 02:03:29;;;;;;;;;;;15.80;99.90;;;14.64;97.56;101292.13;2568455;30;137312;-41
2021/09/24 02:05:57;;;;;;;16.38;9.38;;;15.80;99.90;;;14.60;97.73;101290.91;2569203;30;137164;-41
2021/09/24 02:08:25;;;;;;;19.35;10.85;;;15.80;99.90;;;14.59;97.97;101287.28;2569456;30;138298;-41
2021/09/24 02:10:52;;;;;;;21.13;10.50;;;15.80;99.90;;;14.60;97.58;101280.75;2569245;30;137656;-41
2021/09/24 02:13:19;;;;;;;19.50;11.45;;;15.80;99.90;;;14.59;98.04;101283.72;2568411;30;138747;-40
2021/09/24 02:15:47;;;;;;;19.95;11.95;;;15.80;99.90;;;14.60;98.11;101285.41;2565622;30;137469;-41
2021/09/24 02:18:18;;;;;;;21.80;12.30;;;15.80;99.90;;;14.61;98.47;101284.34;2568086;30;138325;-41
2021/09/24 02:20:46;;;;;;;25.48;14.13;;;15.80;99.90;;;14.62;97.89;101291.50;2567290;30;137604;-42
2021/09/24 02:23:13;;;;;;;23.77;13.55;;;15.80;99.90;;;14.60;97.99;101288.16;2567557;30;138319;-41
2021/09/24 02:25:41;;;;;;;25.45;13.77;;;15.80;99.90;;;14.60;98.72;101286.22;2567628;30;136818;-40
2021/09/24 02:28:09;;;;;;;28.17;13.63;;;15.90;99.90;;;14.56;98.71;101286.91;2568046;30;138475;-41
2021/09/24 02:30:37;;;;;;;22.58;13.52;;;15.80;99.90;;;14.52;99.11;101287.34;2568555;30;137500;-41
2021/09/24 02:33:05;;;;;;;;;;;15.80;99.90;;;14.53;99.70;101291.78;2566668;30;139318;-41
2021/09/24 02:35:32;;;;;;;31.27;14.20;;;15.80;99.90;;;14.53;99.69;101289.03;2568745;30;136740;-41
2021/09/24 02:38:00;;;;;;;29.25;15.10;;;15.80;99.90;;;14.54;99.66;101289.91;2568361;30;137859;-41
2021/09/24 02:40:28;;;;;;;;;;;15.80;99.90;;;14.53;99.86;101282.72;2569472;30;137471;-41
2021/09/24 02:42:55;;;;;;;33.17;15.07;;;15.80;99.90;;;14.56;99.70;101282.25;2565459;30;138835;-41
2021/09/24 02:45:23;;;;;;;28.25;14.35;;;15.80;99.90;;;14.53;99.72;101277.22;2567990;30;137123;-41
2021/09/24 02:47:51;;;;;;;32.67;15.07;;;15.80;99.90;;;14.55;99.88;101275.09;2568243;30;138314;-40
2021/09/24 02:50:19;;;;;;;36.22;18.23;;;15.80;99.90;;;14.58;99.67;101271.88;2570508;30;137473;-41
2021/09/24 02:52:46;;;;;;;35.05;17.63;;;15.80;99.90;;;14.55;99.43;101280.59;2569106;30;138599;-41
2021/09/24 02:55:15;;;;;;;31.65;15.70;;;15.80;99.90;;;14.55;100.00;101290.72;2565964;30;137142;-41
2021/09/24 02:57:42;;;;;;;36.58;18.77;;;15.80;99.90;;;14.50;100.00;101283.19;2568295;30;137815;-41
2021/09/24 03:00:11;;;;;;;30.38;16.40;;;15.80;99.90;;;14.47;100.00;101281.72;2568298;30;137455;-41
2021/09/24 03:02:38;;;;;;;34.10;17.73;;;15.80;99.90;;;14.45;100.00;101275.63;2567490;30;138734;-41
2021/09/24 03:05:07;;;;;;;35.97;18.27;;;15.80;99.90;;;14.46;100.00;101280.03;2568603;30;137699;-41
2021/09/24 03:07:35;;;;;;;41.50;19.05;;;15.70;99.90;;;14.55;100.00;101279.72;2568600;30;138420;-41
2021/09/24 03:10:04;;;;;;;;;;;15.80;99.90;;;14.50;100.00;101283.19;2566834;30;138899;-41
2021/09/24 03:12:32;;;;;;;35.65;18.25;;;15.80;99.90;;;14.44;100.00;101284.94;2569570;30;138081;-41
2021/09/24 03:15:00;;;;;;;32.13;16.48;;;15.80;99.90;;;14.47;100.00;101284.47;2569094;30;138282;-41
2021/09/24 03:17:27;;;;;;;37.08;17.77;;;15.80;99.90;;;14.50;100.00;101280.44;2568753;30;137397;-41
2021/09/24 03:19:55;;;;;;;32.08;17.83;;;15.80;99.90;;;14.50;100.00;101283.19;2569037;30;136962;-41
2021/09/24 03:22:23;;;;;;;;;;;15.80;99.90;;;14.51;100.00;101279.38;2569111;30;139505;-41
2021/09/24 03:24:51;;;;;;;40.10;19.02;;;15.70;99.90;;;14.56;100.00;101274.03;2571246;30;137272;-41
2021/09/24 03:27:19;;;;;;;38.53;17.92;;;15.80;99.90;;;14.55;100.00;101272.34;2568186;30;138435;-41
2021/09/24 03:29:46;;;;;;;37.00;18.98;;;15.80;99.90;;;14.57;100.00;101275.72;2570947;30;137646;-41
2021/09/24 03:32:18;;;;;;;38.58;18.67;;;15.80;99.90;;;14.58;100.00;101276.53;2569375;30;138380;-41
2021/09/24 03:34:48;;;;;;;35.72;19.27;;;15.80;99.90;;;14.57;100.00;101272.97;2569004;30;137019;-41
2021/09/24 03:37:17;;;;;;;40.53;19.98;;;15.80;99.90;;;14.66;100.00;101287.22;2567413;30;137671;-41
2021/09/24 03:39:44;;;;;;;42.42;21.05;;;15.90;99.90;;;14.71;99.84;101283.81;2569445;30;137056;-41
2021/09/24 03:42:12;;;;;;;;;;;15.90;99.90;;;14.65;99.99;101280.88;2569601;30;139182;-41
2021/09/24 03:44:39;;;;;;;42.15;20.55;;;15.90;99.90;;;14.65;100.00;101283.63;2568039;30;138247;-47
2021/09/24 03:47:07;;;;;;;42.65;20.48;;;15.90;99.90;;;14.62;100.00;101281.34;2569323;30;138244;-41
2021/09/24 03:49:35;;;;;;;;;;;15.90;99.90;;;14.68;100.00;101274.94;2570072;30;137058;-41
2021/09/24 03:52:04;;;;;;;44.75;22.08;;;15.90;99.90;;;14.68;100.00;101277.69;2570079;30;138500;-41
2021/09/24 03:54:31;;;;;;;47.20;22.08;;;15.90;99.90;;;14.68;100.00;101285.91;2568532;30;137250;-41
2021/09/24 03:56:59;;;;;;;46.17;23.00;;;15.90;99.90;;;14.71;99.99;101284.66;2569369;30;139430;-41
2021/09/24 03:59:27;;;;;;;39.92;21.08;;;15.90;99.90;;;14.64;99.98;101283.88;2566820;30;136830;-41
2021/09/24 04:01:55;;;;;;;41.15;21.23;;;15.90;99.90;;;14.61;100.00;101276.09;2569240;30;139073;-41
2021/09/24 04:04:23;;;;;;;45.33;21.45;;;15.80;99.90;;;14.61;100.00;101284.34;2569385;30;137820;-40
2021/09/24 04:06:50;;;;;;;44.03;21.48;;;15.80;99.90;;;14.60;100.00;101288.16;2566551;30;138616;-42
2021/09/24 04:09:18;;;;;;;42.72;20.02;;;15.80;99.90;;;14.60;100.00;101285.41;2568488;30;138255;-41
2021/09/24 04:11:46;;;;;;;40.63;20.02;;;15.90;99.90;;;14.58;100.00;101284.75;2568211;30;138486;-41
2021/09/24 04:14:13;;;;;;;;;;;15.80;99.90;;;14.65;100.00;101285.56;2568529;30;138304;-41
2021/09/24 04:16:41;;;;;;;34.20;18.05;;;15.90;99.90;;;14.68;100.00;101285.09;2567213;30;139391;-40
2021/09/24 04:19:08;;;;;;;37.55;17.95;;;15.90;99.90;;;14.75;99.23;101279.56;2569426;30;138480;-41
2021/09/24 04:21:36;;;;;;;36.15;16.88;;;15.90;99.90;;;14.77;99.48;101282.91;2568314;30;137885;-41
2021/09/24 04:24:04;;;;;;;;;;;16.00;99.90;;;14.73;99.47;101282.53;2569845;30;137409;-41
2021/09/24 04:26:31;;;;;;;30.55;15.82;;;16.00;99.90;;;14.66;99.98;101293.53;2569109;30;137241;-41
2021/09/24 04:29:00;;;;;;;36.53;17.13;;;15.90;99.90;;;14.68;100.00;101288.66;2568741;30;138362;-41
2021/09/24 19:26:59;;;;;;;2.63;1.80;;;18.60;99.90;;;16.75;83.20;101238.06;2551071;30;137735;-39
2021/09/24 19:29:29;;;;;;;5.10;2.00;;;18.00;99.90;;;16.66;83.17;101239.50;2568599;30;137438;-39
2021/09/24 19:31:56;;;;;;;3.55;1.80;;;18.00;99.90;;;16.70;83.02;101248.13;2568457;30;138309;-41
2021/09/24 19:34:24;;;;;;;;;;;17.90;99.90;;;16.72;83.00;101245.97;2568276;30;136967;-39
2021/09/24 19:36:51;;;;;;;3.97;1.67;;;18.00;99.90;;;16.66;83.87;101248.59;2568403;30;138772;-39
2021/09/24 19:39:20;;;;;;;;;;;17.90;99.90;;;16.66;83.69;101250.50;2567642;30;136903;-39
2021/09/24 19:41:48;;;;;;;3.20;1.63;;;17.90;99.90;;;16.73;83.15;101261.41;2568974;30;136683;-39
2021/09/24 19:44:16;;;;;;;3.08;1.85;;;17.90;99.90;;;16.60;83.79;101265.25;2568848;30;136785;-39
2021/09/24 19:46:44;;;;;;;4.32;2.10;;;17.90;99.90;;;16.49;84.44;101259.53;2565079;30;138306;-39
2021/09/24 19:49:11;;;;;;;;;;;17.80;99.90;;;16.35;84.53;101258.97;2566890;30;136810;-39
2021/09/24 19:51:39;;;;;;;3.22;1.52;;;17.70;99.90;;;16.28;83.97;101258.22;2565557;30;138547;-39
2021/09/24 19:54:07;;;;;;;;;;;17.60;99.90;;;16.22;84.70;101260.06;2568376;30;137805;-39
2021/09/24 19:56:34;;;;;;;3.83;1.88;;;17.50;99.90;;;16.16;84.99;101255.47;2568184;30;137090;-39
2021/09/24 19:59:03;;;;;;;2.92;1.70;;;17.50;99.90;;;16.08;85.16;101250.34;2568570;30;137220;-39
2021/09/24 20:01:31;;;;;;;3.25;2.13;;;17.40;99.90;;;15.97;85.76;101257.50;2568190;30;138408;-39
2021/09/24 20:04:00;;;;;;;4.25;2.03;;;17.30;99.90;;;15.87;85.80;101252.56;2565881;30;138210;-39
2021/09/24 20:06:27;;;;;;;4.57;2.17;;;17.20;99.90;;;15.76;85.93;101254.22;2566841;30;136928;-39
2021/09/24 20:08:56;;;;;;;3.20;1.88;;;17.10;99.90;;;15.66;86.23;101251.22;2567619;30;137081;-39
2021/09/24 20:11:24;;;;;;;3.17;1.83;;;17.00;99.90;;;15.59;86.82;101245.00;2567377;30;138398;-41
2021/09/24 20:13:52;;;;;;;3.08;1.70;;;17.00;99.90;;;15.53;87.19;101242.13;2567770;30;137112;-42
2021/09/24 20:16:20;;;;;;;5.35;2.00;;;16.90;99.90;;;15.46;87.71;101251.56;2567900;30;137917;-39
2021/09/24 20:18:48;;;;;;;4.45;2.28;;;16.80;99.90;;;15.43;87.66;101241.84;2568743;30;136753;-40
2021/09/24 20:21:15;;;;;;;3.88;2.03;;;16.80;99.90;;;15.34;87.72;101249.59;2567385;30;138250;-39
2021/09/24 20:23:43;;;;;;;3.08;1.90;;;16.70;99.90;;;15.27;87.92;101243.34;2568345;30;137440;-39
2021/09/24 20:26:13;;;;;;;3.88;1.95;;;16.60;99.90;;;15.19;88.53;101246.44;2566772;30;137378;-39
2021/09/24 20:28:42;;;;;;;3.20;1.88;;;16.60;99.90;;;15.16;88.63;101247.75;2568313;30;137498;-39
2021/09/24 20:31:10;;;;;;;5.32;1.90;;;16.50;99.90;;;15.12;88.73;101251.16;2567336;30;138497;-39
2021/09/24 20:33:38;;;;;;;3.25;1.77;;;16.50;99.90;;;15.00;88.89;101246.47;2568185;30;136853;-39
2021/09/24 20:36:06;;;;;;;4.45;2.10;;;16.40;99.90;;;14.98;89.24;101250.50;2567052;30;138428;-39
2021/09/24 20:38:34;;;;;;;3.28;1.92;;;16.40;99.90;;;14.90;89.69;101249.78;2567227;30;138689;-40
2021/09/24 20:41:02;;;;;;;4.50;1.98;;;16.30;99.90;;;14.80;89.56;101244.81;2568428;30;137307;-39
2021/09/24 20:43:29;;;;;;;3.92;1.65;;;16.20;99.90;;;14.76;89.61;101249.09;2566394;30;137087;-39
2021/09/24 20:45:58;;;;;;;2.80;1.80;;;16.20;99.90;;;14.75;90.13;101244.69;2567151;30;138155;-39
2021/09/24 20:48:25;;;;;;;2.75;1.75;;;16.10;99.90;;;14.70;90.58;101254.63;2567120;30;136973;-39
2021/09/24 20:50:53;;;;;;;3.83;2.10;;;16.10;99.90;;;14.64;90.87;101246.25;2568881;30;139298;-39
2021/09/24 20:53:21;;;;;;;3.40;1.63;;;16.00;99.90;;;14.61;90.94;101241.22;2566142;30;137826;-39
2021/09/24 20:55:48;;;;;;;3.38;1.90;;;16.00;99.90;;;14.54;91.23;101245.97;2568412;30;138349;-39
2021/09/24 20:58:16;;;;;;;3.28;1.85;;;15.90;99.90;;;14.49;91.22;101237.59;2566335;30;137238;-39
2021/09/24 21:00:43;;;;;;;2.95;1.70;;;15.90;99.90;;;14.47;91.23;101242.47;2567850;30;137048;-39
2021/09/24 21:03:11;;;;;;;;;;;15.90;99.90;;;14.41;91.79;101241.47;2567934;30;137507;-39
2021/09/24 21:05:39;;;;;;;4.57;2.05;;;15.80;99.90;;;14.38;92.32;101230.94;2566616;30;138666;-39
2021/09/24 21:08:07;;;;;;;4.55;2.00;;;15.80;99.90;;;14.35;91.96;101239.63;2566714;30;136840;-39
2021/09/24 21:10:34;;;;;;;3.92;2.10;;;15.70;99.90;;;14.31;91.88;101235.66;2566664;30;138495;-39
2021/09/24 21:13:02;;;;;;;3.40;1.67;;;15.70;99.90;;;14.30;92.66;101225.72;2567722;30;136892;-39
2021/09/24 21:15:30;;;;;;;;;;;15.70;99.90;;;14.38;92.98;101229.03;2566472;30;139525;-39
2021/09/24 21:17:57;;;;;;;3.00;1.70;;;15.70;99.90;;;14.38;92.83;101231.75;2566989;30;138073;-42
2021/09/24 21:20:25;;;;;;;2.92;1.77;;;15.70;99.90;;;14.37;92.80;101224.59;2566428;30;137665;-39
2021/09/24 21:22:53;;;;;;;4.25;1.80;;;15.70;99.90;;;14.32;92.57;101229.09;2566858;30;137304;-39
2021/09/24 21:25:20;;;;;;;4.43;2.00;;;15.70;99.90;;;14.23;93.07;101229.41;2567796;30;137446;-39
